Terminal Aerodrome Forecast
Issued by NWS

Home | Current Version | Previous Version | Graphics & Text | Print | Product List | Glossary On
Versions: 1 2 3 4 5 6 7 8 9 10 11 12 13 14
000
FTUS43 KGRB 152300
TAFATW
TAF
KATW 152338Z 1600/1624 10006KT P6SM BKN200
     FM160800 07004KT P6SM BKN100
     FM161300 10006KT P6SM SCT060 BKN080
     FM162000 VRB03KT P6SM BKN060=

USA.gov is the U.S. government's official web portal to all federal, state and local government web resources and services.